createdAt,value
2018-09-22T00:04:20.921Z,100.00
2018-09-22T00:06:49.980Z,100.00
2018-09-22T00:09:19.029Z,100.00
2018-09-22T00:11:48.072Z,100.00
2018-09-22T00:14:18.132Z,100.00
2018-09-22T00:16:47.181Z,100.00
2018-09-22T00:19:16.255Z,100.00
2018-09-22T00:21:46.259Z,100.00
2018-09-22T00:24:15.317Z,100.00
2018-09-22T00:29:21.137Z,100.00
2018-09-22T00:31:50.177Z,100.00
2018-09-22T00:34:21.165Z,100.00
2018-09-22T00:36:50.208Z,100.00
2018-09-22T00:39:19.269Z,100.00
2018-09-22T00:41:48.313Z,100.00
2018-09-22T00:44:19.342Z,100.00
2018-09-22T00:46:48.421Z,100.00
2018-09-22T00:49:17.525Z,100.00
2018-09-22T00:51:46.569Z,99.72
2018-09-22T00:54:15.621Z,100.00
2018-09-22T00:56:44.667Z,99.68
2018-09-22T00:59:13.715Z,99.76
2018-09-22T01:01:43.715Z,99.52
2018-09-22T01:04:13.744Z,99.15
2018-09-22T01:06:42.849Z,98.56
2018-09-22T01:09:11.891Z,98.03
2018-09-22T01:11:40.932Z,97.61
2018-09-22T01:14:09.997Z,96.96
2018-09-22T01:16:39.046Z,97.44
2018-09-22T01:19:08.095Z,97.82
2018-09-22T01:21:37.140Z,96.42
2018-09-22T01:24:06.188Z,96.70
2018-09-22T01:26:35.217Z,96.47
2018-09-22T01:29:06.285Z,97.13
2018-09-22T01:31:35.328Z,96.70
2018-09-22T01:34:04.380Z,96.60
2018-09-22T01:36:33.424Z,95.68
2018-09-22T01:39:02.472Z,96.32
2018-09-22T01:41:31.520Z,95.89
2018-09-22T01:44:00.560Z,95.20
2018-09-22T01:46:29.600Z,93.66
2018-09-22T01:51:34.355Z,93.50
2018-09-22T01:54:03.411Z,93.24
2018-09-22T01:56:32.465Z,92.03
2018-09-22T01:59:02.425Z,92.47
2018-09-22T02:01:31.461Z,93.44
2018-09-22T02:09:13.001Z,95.09
2018-09-22T02:21:56.507Z,95.40
2018-09-22T02:24:25.570Z,95.63
2018-09-22T02:26:54.654Z,95.58
2018-09-22T02:29:23.704Z,96.60
2018-09-22T02:37:04.198Z,96.23
2018-09-22T02:47:21.489Z,96.25
2018-09-22T02:49:51.497Z,96.37
2018-09-22T02:52:20.554Z,95.91
2018-09-22T02:54:49.637Z,96.35
2018-09-22T02:59:55.370Z,96.46
2018-09-22T03:02:24.453Z,96.08
2018-09-22T03:04:53.527Z,96.21
2018-09-22T03:07:22.574Z,96.57
2018-09-22T03:09:51.674Z,97.27
2018-09-22T03:12:20.729Z,97.61
2018-09-22T03:14:49.777Z,97.38
2018-09-22T03:17:19.767Z,98.06
2018-09-22T03:19:48.836Z,98.22
2018-09-22T03:22:17.965Z,97.40
2018-09-22T03:24:46.998Z,97.45
2018-09-22T03:27:16.035Z,97.33
2018-09-22T03:29:48.430Z,97.09
2018-09-22T03:32:17.470Z,97.27
2018-09-22T03:34:46.548Z,96.96
2018-09-22T03:37:15.597Z,97.20
2018-09-22T03:39:44.641Z,97.53
2018-09-22T03:44:49.398Z,98.22
2018-09-22T03:47:18.436Z,98.29
2018-09-22T03:49:47.486Z,98.37
2018-09-22T03:54:52.312Z,98.30
2018-09-22T03:57:21.328Z,98.04
2018-09-22T03:59:50.372Z,98.81
2018-09-22T04:04:55.196Z,99.27
2018-09-22T04:07:24.252Z,99.09
2018-09-22T04:09:53.347Z,98.55
2018-09-22T04:12:22.396Z,98.14
2018-09-22T04:14:52.404Z,98.26
2018-09-22T04:19:57.273Z,98.43
2018-09-22T04:22:27.233Z,98.35
2018-09-22T04:24:56.265Z,98.61
2018-09-22T04:27:26.438Z,99.21
2018-09-22T04:29:55.479Z,99.45
2018-09-22T04:32:24.569Z,98.98
2018-09-22T04:34:53.600Z,98.94
2018-09-22T04:39:58.349Z,98.80
2018-09-22T04:45:03.158Z,98.22
2018-09-22T04:47:32.201Z,98.15
2018-09-22T04:50:01.323Z,97.87
2018-09-22T04:52:30.398Z,98.38
2018-09-22T04:54:59.456Z,98.26
2018-09-22T04:57:28.504Z,98.24
2018-09-22T04:59:57.598Z,98.46
2018-09-22T05:05:02.368Z,98.92
2018-09-22T05:07:31.457Z,98.82
2018-09-22T05:10:00.520Z,99.27
2018-09-22T05:12:29.540Z,99.49
2018-09-22T05:17:34.370Z,99.94
2018-09-22T05:20:03.411Z,99.62
2018-09-22T05:22:32.456Z,98.94
2018-09-22T05:25:01.512Z,98.91
2018-09-22T05:27:30.542Z,98.98
2018-09-22T05:29:59.593Z,98.80
2018-09-22T05:32:28.637Z,98.58
2018-09-22T05:34:57.714Z,98.64
2018-09-22T05:37:26.766Z,98.67
2018-09-22T05:39:57.636Z,97.97
2018-09-22T05:42:26.673Z,97.91
2018-09-22T05:44:55.724Z,97.18
2018-09-22T05:47:25.697Z,97.08
2018-09-22T05:49:54.754Z,97.30
2018-09-22T05:52:23.864Z,96.92
2018-09-22T05:54:52.920Z,97.17
2018-09-22T05:57:23.344Z,97.05
2018-09-22T05:59:55.495Z,96.67
2018-09-22T06:02:24.652Z,96.36
2018-09-22T06:04:57.246Z,96.26
2018-09-22T06:07:27.301Z,96.69
2018-09-22T06:09:56.355Z,96.74
2018-09-22T06:12:26.409Z,95.93
2018-09-22T06:14:55.661Z,95.82
2018-09-22T06:17:24.710Z,95.74
2018-09-22T06:19:53.769Z,96.50
2018-09-22T06:22:23.912Z,96.40
2018-09-22T06:24:53.096Z,96.03
2018-09-22T06:27:22.138Z,95.84
2018-09-22T06:29:51.185Z,94.15
2018-09-22T06:32:20.234Z,94.21
2018-09-22T06:34:49.284Z,94.05
2018-09-22T06:37:19.245Z,93.21
2018-09-22T06:39:49.274Z,92.93
2018-09-22T06:42:18.324Z,90.10
2018-09-22T06:44:49.467Z,90.96
2018-09-22T06:49:54.212Z,86.70
2018-09-22T06:52:24.180Z,85.26
2018-09-22T06:54:53.251Z,84.24
2018-09-22T06:57:22.282Z,84.08
2018-09-22T06:59:51.329Z,85.45
2018-09-22T07:02:24.141Z,84.62
2018-09-22T07:04:53.202Z,85.25
2018-09-22T07:07:22.264Z,84.17
2018-09-22T07:09:51.396Z,83.94
2018-09-22T07:12:20.455Z,83.67
2018-09-22T07:14:49.488Z,80.62
2018-09-22T07:17:18.832Z,82.60
2018-09-22T07:19:47.862Z,82.87
2018-09-22T07:25:16.775Z,77.80
2018-09-22T07:27:45.836Z,75.95
2018-09-22T07:30:14.866Z,79.51
2018-09-22T07:32:43.913Z,76.35
2018-09-22T07:35:12.962Z,77.71
2018-09-22T07:37:42.904Z,77.81
2018-09-22T07:40:11.981Z,77.92
2018-09-22T07:42:41.031Z,77.53
2018-09-22T07:45:10.084Z,78.75
2018-09-22T07:47:39.127Z,76.08
2018-09-22T07:50:08.183Z,75.39
2018-09-22T07:52:37.267Z,74.68
2018-09-22T07:55:06.296Z,73.25
2018-09-22T07:57:35.357Z,71.59
2018-09-22T08:00:04.398Z,69.85
2018-09-22T08:02:34.414Z,68.69
2018-09-22T08:05:03.741Z,66.95
2018-09-22T08:07:32.845Z,71.41
2018-09-22T08:10:01.890Z,68.16
2018-09-22T08:12:30.946Z,67.67
2018-09-22T08:15:00.009Z,66.63
2018-09-22T08:17:29.086Z,64.67
2018-09-22T08:19:58.105Z,61.07
2018-09-22T08:22:29.134Z,63.12
2018-09-22T08:24:58.326Z,63.33
2018-09-22T08:27:28.650Z,61.37
2018-09-22T08:29:57.869Z,63.40
2018-09-22T08:32:32.669Z,61.45
2018-09-22T08:37:37.641Z,63.23
2018-09-22T08:40:08.690Z,61.26
2018-09-22T08:42:37.728Z,58.44
2018-09-22T08:45:14.419Z,60.10
2018-09-22T08:47:48.068Z,60.08
2018-09-22T08:50:17.259Z,60.87
2018-09-22T08:52:46.294Z,58.01
2018-09-22T08:55:15.369Z,56.46
2018-09-22T08:57:44.461Z,55.87
2018-09-22T09:00:15.603Z,57.80
2018-09-22T09:02:44.669Z,56.08
2018-09-22T09:07:49.554Z,53.24
2018-09-22T09:12:54.625Z,54.97
2018-09-22T09:15:23.734Z,51.76
2018-09-22T09:17:52.830Z,51.28
2018-09-22T09:20:21.932Z,48.47
2018-09-22T09:22:50.977Z,51.93
2018-09-22T09:25:20.050Z,51.84
2018-09-22T09:27:49.117Z,53.02
2018-09-22T09:30:18.180Z,50.87
2018-09-22T09:32:48.233Z,51.36
2018-09-22T09:35:18.258Z,49.09
2018-09-22T09:37:47.332Z,49.02
2018-09-22T09:40:17.282Z,47.35
2018-09-22T09:42:48.921Z,46.87
2018-09-22T09:45:17.982Z,46.99
2018-09-22T09:50:22.873Z,47.58
2018-09-22T09:52:51.905Z,46.96
2018-09-22T09:55:22.261Z,48.78
2018-09-22T10:00:27.377Z,48.77
2018-09-22T10:02:57.403Z,49.07
2018-09-22T10:05:27.793Z,47.18
2018-09-22T10:07:57.877Z,49.00
2018-09-22T10:10:35.444Z,49.16
2018-09-22T10:13:04.492Z,49.29
2018-09-22T10:15:33.576Z,49.93
2018-09-22T10:20:39.410Z,49.51
2018-09-22T10:23:08.485Z,45.84
2018-09-22T10:25:37.532Z,44.84
2018-09-22T10:28:06.681Z,44.81
2018-09-22T10:33:13.419Z,44.58
2018-09-22T10:35:44.396Z,46.77
2018-09-22T10:38:13.462Z,48.43
2018-09-22T10:40:42.511Z,48.61
2018-09-22T10:43:11.589Z,48.71
2018-09-22T10:45:40.673Z,49.44
2018-09-22T10:48:09.717Z,46.47
2018-09-22T10:50:38.757Z,49.14
2018-09-22T10:53:07.899Z,52.51
2018-09-22T10:55:36.898Z,51.63
2018-09-22T10:58:05.949Z,48.97
2018-09-22T11:03:14.499Z,42.92
2018-09-22T11:05:48.985Z,44.46
2018-09-22T11:08:18.037Z,41.14
2018-09-22T11:10:47.090Z,42.06
2018-09-22T11:15:52.908Z,45.14
2018-09-22T11:18:22.890Z,43.06
2018-09-22T11:20:51.948Z,42.21
2018-09-22T11:23:21.036Z,45.25
2018-09-22T11:25:50.104Z,42.01
2018-09-22T11:28:19.164Z,40.86
2018-09-22T11:30:48.231Z,37.70
2018-09-22T11:33:17.288Z,42.17
2018-09-22T11:35:46.336Z,42.97
2018-09-22T11:38:15.417Z,41.21
2018-09-22T11:40:44.565Z,40.66
2018-09-22T11:43:13.601Z,38.92
2018-09-22T11:48:20.481Z,37.31
2018-09-22T11:50:49.517Z,36.56
2018-09-22T11:53:18.580Z,36.38
2018-09-22T11:55:47.642Z,36.36
2018-09-22T11:58:16.698Z,34.79
2018-09-22T12:00:45.767Z,33.91
2018-09-22T12:03:14.809Z,36.12
2018-09-22T12:05:43.866Z,31.63
2018-09-22T12:08:12.921Z,31.19
2018-09-22T12:10:41.969Z,31.01
2018-09-22T12:15:46.887Z,35.72
2018-09-22T12:18:15.965Z,32.98
2018-09-22T12:20:45.012Z,32.10
2018-09-22T12:23:14.089Z,28.10
2018-09-22T12:25:44.123Z,28.32
2018-09-22T12:28:13.182Z,30.58
2018-09-22T12:30:42.239Z,29.41
2018-09-22T12:35:48.105Z,31.39
2018-09-22T12:38:17.162Z,29.34
2018-09-22T12:40:49.890Z,24.78
2018-09-22T12:45:54.688Z,26.22
2018-09-22T12:48:23.746Z,28.65
2018-09-22T12:50:53.475Z,29.63
2018-09-22T12:53:22.522Z,32.81
2018-09-22T12:55:51.573Z,33.16
2018-09-22T12:58:20.842Z,30.57
2018-09-22T13:00:49.952Z,29.50
2018-09-22T13:03:19.059Z,29.13
2018-09-22T13:05:48.107Z,28.48
2018-09-22T13:08:18.095Z,27.79
2018-09-22T13:10:47.517Z,29.53
2018-09-22T13:13:16.650Z,26.68
2018-09-22T13:15:45.701Z,26.93
2018-09-22T13:18:14.946Z,32.88
2018-09-22T13:23:19.866Z,25.75
2018-09-22T13:25:50.916Z,27.69
2018-09-22T13:28:19.977Z,31.37
2018-09-22T13:33:25.051Z,34.01
2018-09-22T13:38:30.052Z,28.25
2018-09-22T13:40:59.152Z,29.74
2018-09-22T13:43:28.246Z,30.05
2018-09-22T13:45:57.289Z,28.42
2018-09-22T13:51:02.266Z,30.34
2018-09-22T13:53:34.120Z,32.21
2018-09-22T13:56:06.457Z,29.64
2018-09-22T13:58:35.544Z,30.34
2018-09-22T14:01:04.699Z,30.98
2018-09-22T14:03:35.767Z,26.53
2018-09-22T14:06:04.868Z,25.08
2018-09-22T14:08:33.925Z,25.24
2018-09-22T14:11:03.929Z,25.06
2018-09-22T14:13:33.289Z,25.81
2018-09-22T14:16:02.342Z,23.71
2018-09-22T14:21:06.776Z,29.43
2018-09-22T14:23:36.011Z,29.27
2018-09-22T14:28:40.925Z,32.15
2018-09-22T14:33:45.784Z,28.91
2018-09-22T14:36:20.098Z,30.03
2018-09-22T14:41:24.909Z,28.67
2018-09-22T14:43:53.993Z,32.06
2018-09-22T14:46:23.076Z,33.16
2018-09-22T14:51:29.073Z,33.42
2018-09-22T14:53:58.100Z,37.28
2018-09-22T14:56:28.243Z,36.60
2018-09-22T14:58:58.263Z,36.79
2018-09-22T15:01:27.321Z,36.52
2018-09-22T15:03:57.322Z,35.10
2018-09-22T15:06:26.371Z,35.67
2018-09-22T15:08:55.574Z,37.40
2018-09-22T15:11:24.609Z,40.25
2018-09-22T15:13:57.905Z,36.92
2018-09-22T15:16:26.949Z,39.93
2018-09-22T15:18:56.007Z,39.98
2018-09-22T15:21:25.289Z,37.91
2018-09-22T15:26:32.001Z,42.65
2018-09-22T15:29:03.024Z,41.86
2018-09-22T15:34:07.828Z,41.52
2018-09-22T15:36:41.295Z,42.63
2018-09-22T15:39:10.340Z,43.33
2018-09-22T15:41:39.453Z,42.92
2018-09-22T15:44:08.477Z,43.16
2018-09-22T15:46:37.530Z,43.16
2018-09-22T15:49:06.624Z,43.27
2018-09-22T15:51:35.681Z,43.28
2018-09-22T15:54:04.748Z,42.06
2018-09-22T15:56:39.670Z,44.55
2018-09-22T16:01:47.503Z,44.27
2018-09-22T16:04:16.876Z,45.30
2018-09-22T16:11:58.629Z,48.90
2018-09-22T16:14:27.702Z,50.60
2018-09-22T16:16:57.674Z,51.29
2018-09-22T16:19:27.921Z,52.64
2018-09-22T16:24:32.700Z,55.55
2018-09-22T16:27:01.759Z,55.38
2018-09-22T16:29:30.801Z,53.20
2018-09-22T16:31:59.859Z,55.07
2018-09-22T16:39:40.605Z,54.06
2018-09-22T16:42:10.571Z,53.67
2018-09-22T16:44:39.628Z,52.70
2018-09-22T16:47:08.706Z,55.19
2018-09-22T16:52:13.564Z,67.73
2018-09-22T16:54:42.634Z,71.14
2018-09-22T16:57:11.667Z,68.08
2018-09-22T16:59:40.724Z,66.56
2018-09-22T17:02:16.931Z,67.00
2018-09-22T17:07:27.049Z,65.95
2018-09-22T17:09:57.388Z,65.31
2018-09-22T17:12:26.415Z,61.60
2018-09-22T17:14:55.479Z,63.89
2018-09-22T17:17:24.527Z,70.52
2018-09-22T17:19:53.575Z,66.59
2018-09-22T17:22:22.629Z,70.82
2018-09-22T17:24:52.683Z,72.83
2018-09-22T17:27:25.371Z,68.89
2018-09-22T17:29:54.411Z,64.33
2018-09-22T17:32:24.386Z,67.93
2018-09-22T17:34:53.581Z,65.54
2018-09-22T17:37:22.641Z,64.23
2018-09-22T17:39:54.968Z,70.96
2018-09-22T17:42:24.007Z,70.47
2018-09-22T17:44:53.053Z,70.30
2018-09-22T17:47:22.096Z,72.15
2018-09-22T17:49:53.116Z,70.89
2018-09-22T17:52:22.165Z,67.87
2018-09-22T17:54:51.209Z,70.03
2018-09-22T17:57:20.257Z,71.19
2018-09-22T17:59:49.328Z,73.55
2018-09-22T18:04:58.813Z,73.62
2018-09-22T18:07:27.864Z,73.15
2018-09-22T18:09:56.933Z,73.41
2018-09-22T18:12:26.985Z,74.71
2018-09-22T18:14:56.069Z,72.51
2018-09-22T18:17:25.122Z,73.99
2018-09-22T18:19:54.173Z,75.21
2018-09-22T18:22:23.244Z,74.34
2018-09-22T18:24:53.308Z,73.05
2018-09-22T18:27:23.366Z,71.95
2018-09-22T18:29:52.413Z,76.60
2018-09-22T18:32:21.486Z,74.91
2018-09-22T18:34:51.532Z,79.31
2018-09-22T18:37:20.656Z,79.31
2018-09-22T18:39:49.773Z,81.01
2018-09-22T18:42:22.717Z,82.93
2018-09-22T18:44:51.759Z,84.84
2018-09-22T18:47:20.830Z,86.71
2018-09-22T18:49:49.865Z,84.73
2018-09-22T18:52:19.857Z,90.67
2018-09-22T18:54:49.863Z,92.09
2018-09-22T18:57:18.906Z,92.76
2018-09-22T18:59:48.844Z,91.52
2018-09-22T19:02:17.915Z,87.04
2018-09-22T19:04:47.933Z,93.59
2018-09-22T19:07:18.932Z,93.21
2018-09-22T19:09:47.986Z,91.77
2018-09-22T19:12:17.104Z,91.54
2018-09-22T19:17:23.836Z,93.45
2018-09-22T19:19:52.885Z,96.08
2018-09-22T19:22:26.005Z,97.02
2018-09-22T19:24:55.053Z,93.56
2018-09-22T19:27:24.104Z,93.06
2018-09-22T19:29:53.170Z,90.91
2018-09-22T19:32:22.215Z,89.21
2018-09-22T19:34:52.248Z,89.47
2018-09-22T19:37:21.284Z,89.00
2018-09-22T19:39:50.338Z,89.49
2018-09-22T19:42:19.387Z,90.52
2018-09-22T19:44:48.471Z,89.55
2018-09-22T19:47:17.480Z,90.91
2018-09-22T19:49:46.528Z,86.98
2018-09-22T19:52:15.569Z,88.57
2018-09-22T19:54:44.598Z,89.20
2018-09-22T19:57:13.667Z,90.89
2018-09-22T19:59:42.748Z,93.58
2018-09-22T20:02:11.784Z,93.74
2018-09-22T20:04:41.961Z,94.39
2018-09-22T20:07:12.304Z,89.07
2018-09-22T20:09:41.438Z,91.33
2018-09-22T20:12:10.487Z,89.85
2018-09-22T20:14:39.537Z,88.20
2018-09-22T20:17:08.621Z,92.54
2018-09-22T20:19:37.624Z,93.65
2018-09-22T20:22:06.664Z,94.86
2018-09-22T20:24:36.752Z,94.01
2018-09-22T20:29:42.529Z,93.65
2018-09-22T20:32:11.654Z,94.92
2018-09-22T20:34:40.683Z,97.59
2018-09-22T20:37:09.719Z,97.21
2018-09-22T20:39:38.753Z,97.41
2018-09-22T20:42:07.812Z,97.23
2018-09-22T20:44:36.853Z,96.78
2018-09-22T20:47:05.901Z,97.84
2018-09-22T20:49:34.959Z,96.68
2018-09-22T20:52:04.000Z,97.90
2018-09-22T20:54:33.049Z,100.00
2018-09-22T20:57:02.107Z,100.00
2018-09-22T20:59:31.165Z,100.00
2018-09-22T21:02:00.201Z,100.00
2018-09-22T21:04:29.306Z,100.00
2018-09-22T21:06:59.402Z,98.90
2018-09-22T21:09:28.455Z,99.76
2018-09-22T21:11:57.579Z,100.00
2018-09-22T21:14:26.656Z,100.00
2018-09-22T21:19:31.470Z,100.00
2018-09-22T21:22:01.620Z,100.00
2018-09-22T21:24:32.589Z,100.00
2018-09-22T21:27:01.645Z,100.00
2018-09-22T21:29:30.709Z,100.00
2018-09-22T21:31:59.767Z,100.00
2018-09-22T21:34:28.859Z,100.00
2018-09-22T21:36:57.968Z,100.00
2018-09-22T21:39:27.051Z,100.00
2018-09-22T21:41:57.102Z,100.00
2018-09-22T21:44:26.155Z,100.00
2018-09-22T21:46:55.205Z,100.00
2018-09-22T21:49:24.253Z,100.00
2018-09-22T21:51:53.318Z,100.00
2018-09-22T21:54:23.309Z,100.00
2018-09-22T21:56:53.347Z,100.00
2018-09-22T21:59:22.489Z,100.00
2018-09-22T22:01:51.548Z,100.00
2018-09-22T22:04:20.606Z,100.00
2018-09-22T22:06:49.654Z,100.00
2018-09-22T22:09:18.714Z,100.00
2018-09-22T22:11:48.767Z,100.00
2018-09-22T22:14:18.778Z,100.00
2018-09-22T22:16:47.826Z,100.00
2018-09-22T22:19:17.889Z,100.00
2018-09-22T22:21:46.955Z,100.00
2018-09-22T22:24:16.001Z,100.00
2018-09-22T22:26:45.054Z,100.00
2018-09-22T22:29:14.117Z,100.00
2018-09-22T22:31:43.161Z,100.00
2018-09-22T22:34:12.220Z,100.00
2018-09-22T22:36:43.296Z,100.00
2018-09-22T22:39:11.893Z,100.00
2018-09-22T22:41:40.436Z,100.00
2018-09-22T22:44:08.973Z,100.00
2018-09-22T22:46:37.523Z,100.00
2018-09-22T22:49:06.996Z,100.00
2018-09-22T22:51:35.515Z,100.00
2018-09-22T22:54:06.015Z,100.00
2018-09-22T22:56:34.544Z,100.00
2018-09-22T22:59:03.093Z,100.00
2018-09-22T23:01:31.620Z,100.00
2018-09-22T23:04:00.158Z,100.00
2018-09-22T23:06:28.681Z,100.00
2018-09-22T23:08:57.228Z,100.00
2018-09-22T23:11:25.775Z,100.00
2018-09-22T23:13:54.492Z,100.00
2018-09-22T23:16:23.182Z,100.00
2018-09-22T23:18:55.056Z,99.55
2018-09-22T23:21:23.588Z,99.25
2018-09-22T23:23:52.095Z,98.65
2018-09-22T23:26:20.628Z,96.93
2018-09-22T23:28:49.160Z,97.80
2018-09-22T23:31:17.715Z,99.41
2018-09-22T23:33:46.279Z,97.87
2018-09-22T23:36:14.802Z,98.33
2018-09-22T23:38:43.337Z,97.52
2018-09-22T23:41:12.900Z,98.59
2018-09-22T23:43:41.434Z,98.87
2018-09-22T23:46:09.958Z,99.82
2018-09-22T23:48:38.482Z,100.00
2018-09-22T23:51:07.045Z,100.00
2018-09-22T23:53:35.554Z,100.00
2018-09-22T23:56:04.105Z,100.00
2018-09-22T23:58:32.662Z,100.00
